Time;durP1;ratioP1;P1;durP2;ratioP2;P2;SDS_P1;SDS_P2;PMS_P1;PMS_P2;Temp;Humidity;BMP_temperature;BMP_pressure;BME280_temperature;BME280_humidity;BME280_pressure;Samples;Min_cycle;Max_cycle;Signal;HPM_P1;HPM_P2
2024/04/08 15:43:21;;;;;;;;;;;;;;;35.78;21.80;97938.31;5484347;25;1953699;-85
2024/04/08 15:45:57;;;;;;;;;;;;;;;38.64;18.83;97944.63;5556785;25;20262;-84
2024/04/08 15:48:27;;;;;;;;;;;;;;;40.51;17.33;97933.94;5568126;25;19939;-83
2024/04/08 15:50:53;;;;;;;;;;;;;;;41.26;16.56;97934.28;5549871;25;19934;-82
2024/04/08 15:53:19;;;;;;;;;;;;;;;41.65;16.93;97933.41;5562555;25;20015;-82
2024/04/08 15:55:46;;;;;;;;;;;;;;;41.89;17.00;97936.03;5505674;25;19934;-81
2024/04/08 15:58:12;;;;;;;;;;;;;;;41.87;15.96;97932.94;5527996;25;19927;-82
2024/04/08 16:00:38;;;;;;;;;;;;;;;42.06;15.90;97936.38;5527426;25;20355;-83
2024/04/08 16:03:06;;;;;;;;;;;;;;;41.97;16.40;97936.84;5524805;25;19943;-83
2024/04/08 16:05:32;;;;;;;;;;;;;;;41.95;17.11;97925.88;5527451;25;19935;-84
2024/04/08 16:07:58;;;;;;;;;;;;;;;42.09;15.81;97935.28;5520475;25;20263;-84
2024/04/08 16:10:25;;;;;;;;;;;;;;;42.27;15.75;97930.63;5517957;25;19935;-83
2024/04/08 16:12:52;;;;;;;;;;;;;;;41.98;16.30;97935.53;5528709;25;19942;-84
2024/04/08 16:15:19;;;;;;;;;;;;;;;41.95;15.30;97928.78;5531174;25;19927;-82
2024/04/08 16:17:45;;;;;;;;;;;;;;;41.72;15.02;97932.75;5502837;25;19934;-81
2024/04/08 16:20:11;;;;;;;;;;;;;;;41.31;15.21;97927.66;5536037;25;19928;-82
2024/04/08 16:22:37;;;;;;;;;;;;;;;40.67;15.39;97930.72;5504056;25;19935;-81
2024/04/08 16:25:03;;;;;;;;;;;;;;;40.39;15.72;97938.31;5532177;25;19933;-83
2024/04/08 16:27:30;;;;;;;;;;;;;;;39.93;17.13;97925.97;5532729;25;20020;-83
2024/04/08 16:29:56;;;;;;;;;;;;;;;39.74;15.91;97933.88;5535970;25;19973;-83
2024/04/08 16:32:26;;;;;;;;;;;;;;;39.69;15.99;97931.84;5540397;25;19934;-82
2024/04/08 16:34:53;;;;;;;;;;;;;;;39.55;16.72;97932.31;5540804;25;19935;-83
2024/04/08 16:37:19;;;;;;;;;;;;;;;39.31;17.21;97930.28;5539173;25;20259;-83
2024/04/08 16:39:45;;;;;;;;;;;;;;;39.19;17.23;97940.38;5536762;25;19928;-82
2024/04/08 16:42:11;;;;;;;;;;;;;;;38.85;16.87;97944.94;5521101;25;20013;-81
2024/04/08 16:44:37;;;;;;;;;;;;;;;38.74;17.39;97940.13;5530658;25;19939;-83
2024/04/08 16:47:03;;;;;;;;;;;;;;;38.77;16.96;97949.75;5536144;25;20262;-82
2024/04/08 16:49:29;;;;;;;;;;;;;;;38.88;16.99;97938.13;5538711;25;20284;-83
2024/04/08 16:51:55;;;;;;;;;;;;;;;38.94;16.82;97941.72;5530888;25;19932;-82
2024/04/08 16:54:22;;;;;;;;;;;;;;;38.84;17.12;97938.44;5496912;26;19932;-83
2024/04/08 16:56:48;;;;;;;;;;;;;;;38.80;16.78;97940.03;5511133;26;20028;-82
2024/04/08 16:59:16;;;;;;;;;;;;;;;38.65;16.69;97949.06;5528538;26;19977;-83
2024/04/08 17:01:42;;;;;;;;;;;;;;;38.62;16.65;97939.44;5521065;26;19971;-82
2024/04/08 17:04:08;;;;;;;;;;;;;;;38.60;17.03;97944.16;5526950;26;19996;-82
2024/04/08 17:06:38;;;;;;;;;;;;;;;38.51;16.78;97939.53;5519562;26;19928;-82
2024/04/08 17:09:04;;;;;;;;;;;;;;;38.28;17.40;97941.06;5512339;26;20435;-82
2024/04/08 17:11:30;;;;;;;;;;;;;;;38.04;18.30;97938.16;5521592;26;20391;-82
2024/04/08 17:13:56;;;;;;;;;;;;;;;37.76;18.57;97937.56;5487506;26;19935;-82
2024/04/08 17:16:22;;;;;;;;;;;;;;;37.81;17.82;97931.00;5520315;26;19995;-81
2024/04/08 17:18:48;;;;;;;;;;;;;;;37.79;18.29;97940.13;5519151;26;20371;-82
2024/04/08 17:21:14;;;;;;;;;;;;;;;37.71;17.62;97935.50;5512550;26;20473;-82
2024/04/08 17:23:41;;;;;;;;;;;;;;;37.73;17.89;97944.34;5525439;26;19931;-81
2024/04/08 17:26:07;;;;;;;;;;;;;;;37.72;17.74;97940.69;5515474;26;19951;-82
2024/04/08 17:28:35;;;;;;;;;;;;;;;37.59;17.58;97945.47;5518490;26;19939;-83
2024/04/08 17:31:02;;;;;;;;;;;;;;;37.62;17.34;97942.34;5514788;26;19931;-83
2024/04/08 17:33:29;;;;;;;;;;;;;;;37.42;17.67;97945.56;5509460;26;19943;-83
2024/04/08 17:35:56;;;;;;;;;;;;;;;37.35;17.51;97937.50;5513141;26;19927;-83
2024/04/08 17:38:22;;;;;;;;;;;;;;;37.33;16.96;97938.06;5503180;26;19938;-83
2024/04/08 17:40:58;;;;;;;;;;;;;;;37.19;17.78;97939.16;5505267;26;19947;-82
2024/04/08 17:43:26;;;;;;;;;;;;;;;37.15;18.45;97937.88;5516805;26;20046;-82
2024/04/08 17:45:53;;;;;;;;;;;;;;;36.90;17.80;97936.16;5511801;26;19930;-83
2024/04/08 17:48:19;;;;;;;;;;;;;;;36.85;17.23;97940.59;5503405;26;19935;-83
2024/04/08 17:50:50;;;;;;;;;;;;;;;36.58;18.19;97930.78;5497513;26;19936;-84
2024/04/08 17:53:19;;;;;;;;;;;;;;;36.53;18.34;97936.50;5504070;26;20403;-82
2024/04/08 17:55:53;;;;;;;;;;;;;;;36.37;18.69;97931.56;5505455;26;19936;-83
2024/04/08 17:58:19;;;;;;;;;;;;;;;36.41;18.72;97944.28;5498934;26;20443;-83
2024/04/08 18:00:46;;;;;;;;;;;;;;;36.38;17.85;97941.72;5505414;26;19943;-83
2024/04/08 18:03:12;;;;;;;;;;;;;;;36.45;18.34;97941.22;5516031;26;19971;-82
2024/04/08 18:05:38;;;;;;;;;;;;;;;36.12;18.40;97947.72;5507503;25;19927;-82
2024/04/08 18:08:04;;;;;;;;;;;;;;;36.10;18.15;97946.66;5509711;26;19927;-82
2024/04/08 18:10:30;;;;;;;;;;;;;;;35.92;18.77;97943.00;5516261;26;19943;-83
2024/04/08 18:12:56;;;;;;;;;;;;;;;35.54;18.95;97945.81;5508951;26;19935;-82
2024/04/08 18:15:22;;;;;;;;;;;;;;;35.38;18.71;97947.31;5481136;26;20292;-82
2024/04/08 18:17:48;;;;;;;;;;;;;;;35.35;18.97;97946.25;5515133;26;19939;-82
2024/04/08 18:20:16;;;;;;;;;;;;;;;35.45;18.83;97948.88;5511037;26;19935;-81
2024/04/08 18:22:42;;;;;;;;;;;;;;;35.33;18.79;97950.94;5510365;26;20371;-83
2024/04/08 18:25:08;;;;;;;;;;;;;;;35.38;18.69;97950.16;5500834;26;19935;-81
2024/04/08 18:27:34;;;;;;;;;;;;;;;35.57;18.47;97953.34;5508658;26;19947;-82
2024/04/08 18:30:00;;;;;;;;;;;;;;;35.49;18.54;97952.25;5510797;26;20005;-82
2024/04/08 18:32:26;;;;;;;;;;;;;;;35.63;18.31;97954.13;5480052;26;20329;-81
2024/04/08 18:34:53;;;;;;;;;;;;;;;35.75;18.28;97950.78;5505157;26;19942;-83
2024/04/08 18:37:19;;;;;;;;;;;;;;;35.78;18.07;97957.56;5504648;26;20101;-81
2024/04/08 18:39:45;;;;;;;;;;;;;;;35.88;17.81;97955.97;5508974;26;19962;-82
2024/04/08 18:42:11;;;;;;;;;;;;;;;35.48;17.79;97953.53;5508108;26;19934;-83
2024/04/08 18:44:37;;;;;;;;;;;;;;;35.64;17.93;97959.31;5511732;26;19927;-83
2024/04/08 18:47:03;;;;;;;;;;;;;;;35.72;17.57;97960.38;5472114;26;19939;-82
2024/04/08 18:49:29;;;;;;;;;;;;;;;35.62;17.83;97961.91;5507124;26;19939;-83
2024/04/08 18:51:55;;;;;;;;;;;;;;;35.74;17.41;97960.66;5507772;26;19931;-82
2024/04/08 18:54:21;;;;;;;;;;;;;;;35.58;17.87;97966.31;5505722;26;19927;-83
2024/04/08 18:56:47;;;;;;;;;;;;;;;35.49;17.97;97952.25;5503512;25;19943;-82
2024/04/08 18:59:15;;;;;;;;;;;;;;;35.18;18.27;97959.69;5475505;26;19939;-82
2024/04/08 19:01:41;;;;;;;;;;;;;;;34.99;18.47;97960.63;5494945;26;19952;-82
2024/04/08 19:04:07;;;;;;;;;;;;;;;34.29;19.43;97972.63;5511699;26;20032;-83
2024/04/08 19:06:33;;;;;;;;;;;;;;;34.48;18.74;97973.78;5499951;26;19927;-83
2024/04/08 19:09:00;;;;;;;;;;;;;;;34.51;18.75;97986.25;5508009;26;19931;-83
2024/04/08 19:11:26;;;;;;;;;;;;;;;34.61;18.36;97976.25;5499471;26;19940;-83
2024/04/08 19:13:53;;;;;;;;;;;;;;;34.57;18.66;97976.47;5514174;26;19959;-83
2024/04/08 19:16:19;;;;;;;;;;;;;;;34.54;18.62;97988.91;5511352;26;19931;-83
2024/04/08 19:18:46;;;;;;;;;;;;;;;34.92;18.59;97975.38;5511285;26;19935;-83
2024/04/08 19:21:12;;;;;;;;;;;;;;;34.99;18.33;97972.81;5501989;26;19935;-83
2024/04/08 19:23:38;;;;;;;;;;;;;;;35.09;17.98;97977.06;5500910;26;19956;-82
2024/04/08 19:26:05;;;;;;;;;;;;;;;35.13;18.18;97971.09;5497229;26;19943;-82
2024/04/08 19:28:32;;;;;;;;;;;;;;;35.07;18.27;97976.00;5506314;26;19997;-82
2024/04/08 19:30:58;;;;;;;;;;;;;;;35.06;18.38;97974.44;5476158;26;19927;-82
2024/04/08 19:33:25;;;;;;;;;;;;;;;34.76;18.33;97968.28;5508690;26;19932;-81
2024/04/08 19:35:58;;;;;;;;;;;;;;;34.72;18.51;97979.97;5493791;26;19928;-81
2024/04/08 19:38:27;;;;;;;;;;;;;;;34.70;18.53;97973.19;5499888;26;20493;-80
2024/04/08 19:40:59;;;;;;;;;;;;;;;34.87;17.98;97971.19;5504993;26;19935;-80
2024/04/08 19:43:26;;;;;;;;;;;;;;;34.95;18.40;97975.13;5496824;26;19931;-82
2024/04/08 19:45:52;;;;;;;;;;;;;;;35.01;18.36;97972.31;5503081;26;19928;-80
2024/04/08 19:48:18;;;;;;;;;;;;;;;34.88;18.07;97977.69;5512656;26;20005;-83
2024/04/08 19:50:44;;;;;;;;;;;;;;;34.86;18.24;97981.06;5489848;26;19940;-80
2024/04/08 19:53:10;;;;;;;;;;;;;;;34.86;18.49;97975.34;5495380;26;19996;-81
2024/04/08 19:55:36;;;;;;;;;;;;;;;34.76;19.33;97993.97;5507890;26;19935;-81
2024/04/08 19:58:02;;;;;;;;;;;;;;;34.82;18.36;97996.88;5489506;26;19935;-81
2024/04/08 20:00:28;;;;;;;;;;;;;;;34.83;18.58;97992.69;5504580;26;19932;-81
2024/04/08 20:02:54;;;;;;;;;;;;;;;34.83;18.54;97987.00;5520148;26;19947;-81
2024/04/08 20:05:20;;;;;;;;;;;;;;;34.76;19.04;97999.66;5493700;26;20262;-81
2024/04/08 20:07:46;;;;;;;;;;;;;;;34.64;19.06;97995.97;5488824;26;19936;-81
2024/04/08 20:10:12;;;;;;;;;;;;;;;34.60;18.78;98001.13;5497098;26;19927;-81
2024/04/08 20:12:38;;;;;;;;;;;;;;;34.55;18.28;98001.88;5492027;26;20371;-81
2024/04/08 20:15:06;;;;;;;;;;;;;;;34.60;18.43;97995.44;5493060;26;19928;-81
2024/04/08 20:17:32;;;;;;;;;;;;;;;34.40;18.63;97997.59;5496443;26;20366;-81
2024/04/08 20:19:59;;;;;;;;;;;;;;;34.47;18.68;97999.97;5510640;26;20363;-81
2024/04/08 20:22:25;;;;;;;;;;;;;;;34.50;18.77;97993.25;5503759;26;19935;-81
2024/04/08 20:24:51;;;;;;;;;;;;;;;34.41;18.96;97982.81;5509501;26;19927;-84
2024/04/08 20:27:18;;;;;;;;;;;;;;;34.33;19.23;97989.50;5496406;26;19927;-82
2024/04/08 20:29:48;;;;;;;;;;;;;;;34.05;19.31;97986.44;5473544;26;19932;-82
2024/04/08 20:32:14;;;;;;;;;;;;;;;33.93;19.99;97994.06;5498392;26;20339;-82
2024/04/08 20:34:40;;;;;;;;;;;;;;;33.43;20.42;97989.88;5510107;26;19938;-82
2024/04/08 20:37:07;;;;;;;;;;;;;;;33.50;20.41;97982.97;5502879;26;19932;-82
2024/04/08 20:39:33;;;;;;;;;;;;;;;33.42;20.70;97980.56;5508264;26;19928;-82
2024/04/08 20:42:02;;;;;;;;;;;;;;;33.38;21.10;97974.31;5507220;26;19986;-82
2024/04/08 20:44:28;;;;;;;;;;;;;;;33.10;20.72;97976.03;5500436;26;19932;-82
2024/04/08 20:46:55;;;;;;;;;;;;;;;33.15;20.43;97981.03;5504372;26;19976;-82
2024/04/08 20:49:21;;;;;;;;;;;;;;;33.00;20.74;97976.66;5500591;26;19928;-82
2024/04/08 20:51:48;;;;;;;;;;;;;;;32.82;21.71;97971.22;5507026;26;19939;-83
2024/04/08 20:54:14;;;;;;;;;;;;;;;32.49;22.19;97968.66;5498749;26;19928;-82
2024/04/08 20:56:40;;;;;;;;;;;;;;;32.54;21.93;97971.63;5500916;26;20253;-81
2024/04/08 20:59:06;;;;;;;;;;;;;;;32.67;21.55;97971.31;5496149;26;19960;-82
2024/04/08 21:01:32;;;;;;;;;;;;;;;32.71;21.80;97971.88;5475009;26;19928;-83
2024/04/08 21:03:58;;;;;;;;;;;;;;;33.01;20.84;97969.69;5507905;26;19940;-82
2024/04/08 21:06:26;;;;;;;;;;;;;;;33.06;20.62;97969.00;5509906;26;19927;-83
2024/04/08 21:08:52;;;;;;;;;;;;;;;32.98;20.80;97979.97;5503427;26;19928;-83
2024/04/08 21:11:18;;;;;;;;;;;;;;;33.00;20.75;97973.81;5518610;26;19932;-83
2024/04/08 21:13:44;;;;;;;;;;;;;;;32.95;20.65;97977.38;5506563;26;19927;-82
2024/04/08 21:16:10;;;;;;;;;;;;;;;32.88;20.67;97975.75;5514826;26;19995;-82
2024/04/08 21:18:36;;;;;;;;;;;;;;;32.65;20.85;97971.03;5513470;26;19934;-82
2024/04/08 21:21:03;;;;;;;;;;;;;;;32.44;21.20;97964.47;5499814;26;19934;-82
2024/04/08 21:23:29;;;;;;;;;;;;;;;32.46;20.92;97972.53;5528545;26;19935;-82
2024/04/08 21:26:04;;;;;;;;;;;;;;;32.61;20.89;97979.75;5522947;26;19932;-82
2024/04/08 21:28:30;;;;;;;;;;;;;;;32.69;20.74;97971.59;5509162;26;19934;-82
2024/04/08 21:30:56;;;;;;;;;;;;;;;32.53;21.06;97970.09;5508813;26;19928;-82
2024/04/08 21:33:23;;;;;;;;;;;;;;;32.49;21.15;97962.97;5511672;26;20382;-82
2024/04/08 21:35:55;;;;;;;;;;;;;;;32.32;21.11;97964.81;5511791;26;20135;-82
2024/04/08 21:38:22;;;;;;;;;;;;;;;32.38;21.04;97968.50;5520209;26;19934;-82
2024/04/08 21:40:54;;;;;;;;;;;;;;;32.19;21.09;97965.13;5504047;25;19932;-82
2024/04/08 21:43:20;;;;;;;;;;;;;;;32.31;21.15;97951.88;5509968;26;19934;-82
2024/04/08 21:45:59;;;;;;;;;;;;;;;32.28;21.22;97958.56;5509199;26;19939;-82
2024/04/08 21:48:25;;;;;;;;;;;;;;;32.27;21.20;97952.09;5509716;26;19995;-82
2024/04/08 21:50:52;;;;;;;;;;;;;;;32.36;20.72;97951.97;5507842;26;19956;-82
2024/04/08 21:53:20;;;;;;;;;;;;;;;32.18;20.72;97957.88;5512657;26;19940;-82
2024/04/08 21:55:50;;;;;;;;;;;;;;;32.16;20.62;97946.19;5523942;26;19928;-82
2024/04/08 21:58:16;;;;;;;;;;;;;;;32.46;20.53;97950.56;5513016;26;20252;-82
2024/04/08 22:00:43;;;;;;;;;;;;;;;32.54;20.36;97942.41;5517064;26;19933;-82
2024/04/08 22:03:09;;;;;;;;;;;;;;;32.68;20.12;97941.56;5496303;26;19928;-82
2024/04/08 22:05:35;;;;;;;;;;;;;;;32.61;20.31;97942.78;5515594;26;19934;-83
2024/04/08 22:08:01;;;;;;;;;;;;;;;32.55;20.29;97941.16;5505371;26;19963;-82
2024/04/08 22:10:27;;;;;;;;;;;;;;;32.46;20.30;97949.78;5504010;26;19936;-82
2024/04/08 22:12:54;;;;;;;;;;;;;;;32.52;20.40;97942.13;5498769;26;20263;-82
2024/04/08 22:15:20;;;;;;;;;;;;;;;32.36;20.71;97946.28;5516804;26;20379;-82
2024/04/08 22:17:46;;;;;;;;;;;;;;;32.47;20.61;97949.28;5517236;26;20410;-82
2024/04/08 22:20:12;;;;;;;;;;;;;;;32.59;20.32;97941.72;5485988;26;20447;-83
2024/04/08 22:22:38;;;;;;;;;;;;;;;32.46;21.09;97947.72;5518742;26;19938;-82
2024/04/08 22:25:04;;;;;;;;;;;;;;;32.41;20.62;97945.56;5506209;26;19938;-82
2024/04/08 22:27:30;;;;;;;;;;;;;;;32.28;20.54;97944.34;5519956;26;19934;-82
2024/04/08 22:29:56;;;;;;;;;;;;;;;31.95;21.36;97942.50;5512067;26;20003;-82
2024/04/08 22:32:22;;;;;;;;;;;;;;;31.84;21.06;97942.31;5514019;26;19939;-82
2024/04/08 22:34:48;;;;;;;;;;;;;;;32.11;21.05;97940.44;5516283;26;19927;-82
2024/04/08 22:37:14;;;;;;;;;;;;;;;32.22;20.68;97932.09;5508929;26;19946;-82
2024/04/08 22:39:40;;;;;;;;;;;;;;;32.22;21.13;97940.63;5502361;26;19932;-83
2024/04/08 22:42:06;;;;;;;;;;;;;;;32.14;21.02;97934.56;5514120;25;19928;-82
2024/04/08 22:44:32;;;;;;;;;;;;;;;32.11;21.33;97940.44;5500634;26;20387;-83
2024/04/08 22:46:59;;;;;;;;;;;;;;;32.09;21.23;97940.97;5504793;26;19931;-83
2024/04/08 22:49:25;;;;;;;;;;;;;;;31.96;21.21;97932.72;5501294;26;19993;-82
2024/04/08 22:51:51;;;;;;;;;;;;;;;32.18;20.72;97935.16;5499813;26;20296;-82
2024/04/08 22:54:17;;;;;;;;;;;;;;;31.82;21.32;97944.88;5469669;26;19943;-82
2024/04/08 22:56:43;;;;;;;;;;;;;;;31.71;21.46;97941.03;5516096;26;19935;-83
2024/04/08 22:59:09;;;;;;;;;;;;;;;31.93;21.14;97933.69;5514324;26;20444;-82
2024/04/08 23:01:35;;;;;;;;;;;;;;;32.20;21.25;97938.28;5517809;26;19939;-83
2024/04/08 23:04:01;;;;;;;;;;;;;;;32.07;21.38;97944.28;5508940;26;19936;-82
2024/04/08 23:06:27;;;;;;;;;;;;;;;31.96;21.24;97935.56;5509457;26;19927;-83
2024/04/08 23:08:53;;;;;;;;;;;;;;;31.91;21.11;97939.06;5465609;26;20208;-83
2024/04/08 23:11:19;;;;;;;;;;;;;;;31.99;21.13;97928.13;5508802;26;19996;-83
2024/04/08 23:13:45;;;;;;;;;;;;;;;31.98;21.13;97926.56;5504609;26;19939;-83
2024/04/08 23:16:11;;;;;;;;;;;;;;;32.15;20.73;97924.78;5523224;26;19939;-82
2024/04/08 23:18:37;;;;;;;;;;;;;;;32.06;20.86;97922.03;5521619;26;19927;-83
2024/04/08 23:21:03;;;;;;;;;;;;;;;32.18;21.17;97917.31;5510441;26;19935;-83
2024/04/08 23:23:29;;;;;;;;;;;;;;;31.93;21.79;97918.69;5511623;26;19927;-83
2024/04/08 23:25:55;;;;;;;;;;;;;;;32.04;21.53;97916.84;5508752;26;20272;-82
2024/04/08 23:28:21;;;;;;;;;;;;;;;32.12;21.49;97914.38;5511301;26;20388;-83
2024/04/08 23:30:47;;;;;;;;;;;;;;;31.99;21.06;97909.03;5503455;26;19927;-83
2024/04/08 23:33:13;;;;;;;;;;;;;;;31.93;21.49;97915.84;5508392;26;19927;-83
2024/04/08 23:35:40;;;;;;;;;;;;;;;31.98;21.27;97918.03;5517590;26;19935;-83
2024/04/08 23:38:06;;;;;;;;;;;;;;;32.08;20.92;97916.66;5502253;26;19934;-83
2024/04/08 23:40:32;;;;;;;;;;;;;;;31.94;21.30;97912.53;5500601;26;19927;-82
2024/04/08 23:42:58;;;;;;;;;;;;;;;31.63;21.83;97920.00;5504305;26;19998;-83
2024/04/08 23:45:25;;;;;;;;;;;;;;;31.60;22.14;97912.47;5507054;26;19947;-83
2024/04/08 23:47:51;;;;;;;;;;;;;;;31.66;22.03;97907.66;5510314;26;19938;-83
2024/04/08 23:50:18;;;;;;;;;;;;;;;31.82;21.17;97907.94;5499895;26;19944;-82
2024/04/08 23:52:44;;;;;;;;;;;;;;;31.90;21.09;97903.41;5498861;26;20015;-82
2024/04/08 23:55:10;;;;;;;;;;;;;;;31.99;21.20;97900.53;5498802;26;19935;-83
2024/04/08 23:57:36;;;;;;;;;;;;;;;32.20;20.89;97900.56;5498953;26;20391;-83
